»·PEaware :: N747KT KVNY-KSNA

N747KT :: KVNY-KSNA

FLIGHT INFORMATION

Flight Status: Arrived
Operator: Privately registered:
United States
More flights under this callsign
Pilot: Michael M. (12217)
Aircraft: CESSNA 172 SKYHAWK
(C172)
More flights by this aircraft type
Origin: KVNY Van Nuys
United States
Destination: KSNA John Wayne-Orange Co
United States
More flights between these airports :: More routes between these airports
Route: +
File this flight plan on PilotEdge
Remarks: CAT10
Altitude:
(Current/Filed)
5,500ft
Speed:
(Current/Filed)
0kts
Departed: 17-Aug-17 04:41 PM
Arrived: 17-Aug-17 06:00 PM
Distance/Time
Traveled:
45nm/1:19
Distance/Time
To Go:
Arrived

Flight Plot

Page will automatically refresh every two minutes.


Map Options




Map Legend


Flown Route
Filed Route
Departure Airport
Arrival Airport
Navaid (VOR, NDB)
Fix

Horizontal Profiles

Position Reports

Time Latitude Longitude Heading Altitude Ground
Speed
17-Aug-17 16:37 34.206522 -118.492691 63 770ft 0kts
17-Aug-17 16:38 34.206585 -118.492583 64 771ft 8kts
17-Aug-17 16:39 34.210833 -118.491682 354 779ft 27kts
17-Aug-17 16:40 34.217925 -118.492331 350 796ft 20kts
17-Aug-17 16:41 34.218832 -118.492277 87 798ft 0kts
17-Aug-17 16:42 34.218832 -118.492277 87 798ft 0kts
17-Aug-17 16:43 34.218832 -118.492277 87 798ft 0kts
17-Aug-17 16:44 34.218832 -118.492251 88 798ft 2kts
17-Aug-17 16:45 34.211767 -118.490522 176 870ft 74kts
17-Aug-17 16:46 34.192061 -118.487162 162 1747ft 72kts
17-Aug-17 16:47 34.172639 -118.480629 169 2534ft 74kts
17-Aug-17 16:48 34.152578 -118.476134 165 3303ft 74kts
17-Aug-17 16:49 34.133118 -118.469454 193 3664ft 72kts
17-Aug-17 16:50 34.139390 -118.483094 54 3788ft 90kts
17-Aug-17 16:51 34.126821 -118.473224 139 4083ft 75kts
17-Aug-17 16:52 34.128664 -118.475512 146 4204ft 78kts
17-Aug-17 16:53 34.137010 -118.475584 74 4761ft 73kts
17-Aug-17 16:54 34.132767 -118.469192 251 5365ft 87kts
17-Aug-17 16:55 34.113767 -118.475716 202 5621ft 76kts
17-Aug-17 16:56 34.094108 -118.475561 163 5576ft 78kts
17-Aug-17 16:57 34.071489 -118.469178 167 5464ft 88kts
17-Aug-17 16:58 34.059508 -118.464919 280 5515ft 93kts
17-Aug-17 16:59 34.083686 -118.463196 66 5527ft 112kts
17-Aug-17 17:00 34.074141 -118.469751 315 5473ft 121kts
17-Aug-17 17:01 34.103886 -118.475493 321 5622ft 114kts
17-Aug-17 17:02 34.113540 -118.464007 155 5502ft 62kts
17-Aug-17 17:03 34.094926 -118.461288 181 5471ft 73kts
17-Aug-17 17:04 34.106752 -118.472794 7 5640ft 88kts
17-Aug-17 17:05 34.133076 -118.471105 317 5181ft 113kts
17-Aug-17 17:06 34.159708 -118.494000 323 4025ft 118kts
17-Aug-17 17:07 34.188830 -118.513767 349 2444ft 126kts
17-Aug-17 17:08 34.215158 -118.506825 356 1869ft 90kts
17-Aug-17 17:09 34.237919 -118.507116 71 1441ft 63kts
17-Aug-17 17:10 34.229959 -118.492143 175 1201ft 68kts
17-Aug-17 17:11 34.212852 -118.490704 172 788ft 45kts
17-Aug-17 17:12 34.210126 -118.491396 292 777ft 0kts
17-Aug-17 17:13 34.210133 -118.491523 252 777ft 4kts
17-Aug-17 17:14 34.208299 -118.491855 81 774ft 0kts
17-Aug-17 17:15 34.208299 -118.491851 81 774ft 0kts
17-Aug-17 17:16 34.208299 -118.491851 81 774ft 0kts
17-Aug-17 17:17 34.208299 -118.491851 81 774ft 0kts
17-Aug-17 17:18 34.208299 -118.491851 81 774ft 0kts
17-Aug-17 17:19 34.208299 -118.491851 81 774ft 0kts
17-Aug-17 17:20 34.208299 -118.491851 81 774ft 0kts
17-Aug-17 17:21 34.210872 -118.491856 356 779ft 30kts
17-Aug-17 17:22 34.217009 -118.492271 356 794ft 15kts
17-Aug-17 17:23 34.218749 -118.491999 81 798ft 0kts
17-Aug-17 17:24 34.218749 -118.491999 82 798ft 0kts
17-Aug-17 17:25 34.218730 -118.491244 145 797ft 13kts
17-Aug-17 17:26 34.204787 -118.489513 182 1239ft 69kts
17-Aug-17 17:26 34.190117 -118.489395 170 1938ft 59kts
17-Aug-17 17:27 34.172851 -118.486198 159 2729ft 64kts
17-Aug-17 17:28 34.156757 -118.477134 158 3538ft 63kts
17-Aug-17 17:30 34.144729 -118.477022 323 4296ft 92kts
17-Aug-17 17:31 34.138173 -118.474289 188 5056ft 61kts
17-Aug-17 17:32 34.141641 -118.478888 169 5469ft 87kts
17-Aug-17 17:33 34.113667 -118.477273 177 5426ft 106kts
17-Aug-17 17:34 34.085881 -118.471432 165 5416ft 96kts
17-Aug-17 17:35 34.061267 -118.464201 168 5421ft 89kts
17-Aug-17 17:36 34.037316 -118.458147 168 5426ft 91kts
17-Aug-17 17:36 34.017490 -118.453166 168 5417ft 82kts
17-Aug-17 17:37 33.996046 -118.447760 169 5422ft 77kts
17-Aug-17 17:38 33.974464 -118.442290 169 5432ft 82kts
17-Aug-17 17:39 33.951608 -118.436517 170 5430ft 85kts
17-Aug-17 17:40 33.928246 -118.426998 147 5425ft 98kts
17-Aug-17 17:41 33.903565 -118.406059 145 5445ft 117kts
17-Aug-17 17:42 33.877096 -118.383100 144 5430ft 122kts
17-Aug-17 17:43 33.849386 -118.358948 143 5426ft 123kts
17-Aug-17 17:44 33.821813 -118.334924 142 5424ft 123kts
17-Aug-17 17:45 33.794077 -118.310726 142 5422ft 124kts
17-Aug-17 17:46 33.766189 -118.286409 143 5420ft 124kts
17-Aug-17 17:47 33.746714 -118.255006 100 5419ft 120kts
17-Aug-17 17:48 33.740003 -118.216141 109 5420ft 110kts
17-Aug-17 17:49 33.734242 -118.186845 115 5374ft 74kts
17-Aug-17 17:50 33.727979 -118.162079 103 4727ft 78kts
17-Aug-17 17:51 33.725715 -118.136839 110 4136ft 79kts
17-Aug-17 17:52 33.720251 -118.112555 112 3637ft 74kts
17-Aug-17 17:53 33.715744 -118.087655 107 3298ft 70kts
17-Aug-17 17:54 33.710953 -118.060471 105 3516ft 111kts
17-Aug-17 17:55 33.704920 -118.026915 107 3445ft 84kts
17-Aug-17 17:56 33.700611 -118.003270 108 3444ft 63kts
17-Aug-17 17:57 33.696443 -117.979606 106 3088ft 75kts
17-Aug-17 17:58 33.692849 -117.953580 105 2540ft 90kts
17-Aug-17 17:59 33.688295 -117.922009 103 1931ft 88kts
17-Aug-17 18:00 33.683042 -117.894557 113 1511ft 76kts
17-Aug-17 18:01 33.689608 -117.872974 42 1133ft 82kts
17-Aug-17 18:02 33.680363 -117.865829 209 114ft 73kts
17-Aug-17 18:03 33.675955 -117.869774 296 49ft 0kts
17-Aug-17 18:05 33.675434 -117.870491 208 49ft 10kts
17-Aug-17 18:06 33.672678 -117.872772 252 49ft 3kts
17-Aug-17 18:07 33.672338 -117.873351 210 51ft 0kts

Navigation Log

Ident Type
Flight plan parsing failed, navigation log unavailable